sensor_id;sensor_type;location;lat;lon;timestamp;pressure;altitude;pressure_sealevel;temperature;humidity
64889;BME280;51386;53.082;8.816;2023-04-29T00:01:19;101015.84;;;16.44;58.48
64889;BME280;51386;53.082;8.816;2023-04-29T00:03:46;101017.88;;;16.42;58.52
64889;BME280;51386;53.082;8.816;2023-04-29T00:06:14;101015.63;;;16.39;58.85
64889;BME280;51386;53.082;8.816;2023-04-29T00:08:42;101015.03;;;16.37;58.62
64889;BME280;51386;53.082;8.816;2023-04-29T00:11:09;101023.41;;;16.34;58.69
64889;BME280;51386;53.082;8.816;2023-04-29T00:13:37;101022.78;;;16.32;58.92
64889;BME280;51386;53.082;8.816;2023-04-29T00:16:07;101025.84;;;16.28;58.72
64889;BME280;51386;53.082;8.816;2023-04-29T00:18:36;101020.75;;;16.27;59.01
64889;BME280;51386;53.082;8.816;2023-04-29T00:21:04;101026.06;;;16.27;58.63
64889;BME280;51386;53.082;8.816;2023-04-29T00:23:34;101031.16;;;16.28;58.69
64889;BME280;51386;53.082;8.816;2023-04-29T00:26:05;101030.75;;;16.32;58.87
64889;BME280;51386;53.082;8.816;2023-04-29T00:28:32;101034.25;;;16.32;58.58
64889;BME280;51386;53.082;8.816;2023-04-29T00:30:59;101034.25;;;16.32;58.51
64889;BME280;51386;53.082;8.816;2023-04-29T00:33:26;101044.44;;;16.28;58.71
64889;BME280;51386;53.082;8.816;2023-04-29T00:35:53;101044.44;;;16.28;58.37
64889;BME280;51386;53.082;8.816;2023-04-29T00:38:20;101056.94;;;16.28;58.25
64889;BME280;51386;53.082;8.816;2023-04-29T00:40:47;101058.16;;;16.25;58.40
64889;BME280;51386;53.082;8.816;2023-04-29T00:43:15;101054.66;;;16.25;58.60
64889;BME280;51386;53.082;8.816;2023-04-29T00:45:42;101057.53;;;16.23;58.48
64889;BME280;51386;53.082;8.816;2023-04-29T00:48:11;101064.88;;;16.21;58.59
64889;BME280;51386;53.082;8.816;2023-04-29T00:50:38;101064.06;;;16.21;58.63
64889;BME280;51386;53.082;8.816;2023-04-29T00:53:05;101070.19;;;16.21;58.31
64889;BME280;51386;53.082;8.816;2023-04-29T00:55:32;101077.53;;;16.19;58.39
64889;BME280;51386;53.082;8.816;2023-04-29T00:58:02;101075.28;;;16.16;58.52
64889;BME280;51386;53.082;8.816;2023-04-29T01:00:32;101078.38;;;16.13;58.20
64889;BME280;51386;53.082;8.816;2023-04-29T01:02:59;101080.41;;;16.11;58.52
64889;BME280;51386;53.082;8.816;2023-04-29T01:05:26;101086.13;;;16.08;58.15
64889;BME280;51386;53.082;8.816;2023-04-29T01:08:07;101089.16;;;16.05;57.96
64889;BME280;51386;53.082;8.816;2023-04-29T01:10:44;101092.84;;;16.04;58.32
64889;BME280;51386;53.082;8.816;2023-04-29T01:13:20;101098.97;;;16.05;58.15
64889;BME280;51386;53.082;8.816;2023-04-29T01:16:02;101100.00;;;16.04;58.26
64889;BME280;51386;53.082;8.816;2023-04-29T01:18:36;101108.16;;;16.02;58.04
64889;BME280;51386;53.082;8.816;2023-04-29T01:21:03;101095.91;;;16.01;58.09
64889;BME280;51386;53.082;8.816;2023-04-29T01:23:32;101094.25;;;16.00;57.85
64889;BME280;51386;53.082;8.816;2023-04-29T01:25:59;101113.88;;;15.99;58.17
64889;BME280;51386;53.082;8.816;2023-04-29T01:28:42;101111.41;;;15.98;57.95
64889;BME280;51386;53.082;8.816;2023-04-29T01:31:20;101111.41;;;15.98;57.99
64889;BME280;51386;53.082;8.816;2023-04-29T01:34:07;101113.66;;;15.94;57.67
64889;BME280;51386;53.082;8.816;2023-04-29T01:36:46;101118.97;;;15.94;58.29
64889;BME280;51386;53.082;8.816;2023-04-29T01:39:26;101117.94;;;15.95;58.09
64889;BME280;51386;53.082;8.816;2023-04-29T01:42:06;101123.25;;;15.95;57.74
64889;BME280;51386;53.082;8.816;2023-04-29T01:44:40;101124.06;;;15.96;57.91
64889;BME280;51386;53.082;8.816;2023-04-29T01:47:12;101132.25;;;15.94;57.60
64889;BME280;51386;53.082;8.816;2023-04-29T01:49:39;101130.59;;;15.93;57.99
64889;BME280;51386;53.082;8.816;2023-04-29T01:52:06;101135.91;;;15.93;57.77
64889;BME280;51386;53.082;8.816;2023-04-29T01:54:34;101139.59;;;15.92;57.91
64889;BME280;51386;53.082;8.816;2023-04-29T01:57:02;101141.59;;;15.90;57.49
64889;BME280;51386;53.082;8.816;2023-04-29T01:59:29;101150.59;;;15.89;57.35
64889;BME280;51386;53.082;8.816;2023-04-29T02:01:57;101150.59;;;15.89;57.31
64889;BME280;51386;53.082;8.816;2023-04-29T02:04:24;101149.78;;;15.89;57.49
64889;BME280;51386;53.082;8.816;2023-04-29T02:06:53;101161.44;;;15.88;57.37
64889;BME280;51386;53.082;8.816;2023-04-29T02:09:20;101169.56;;;15.86;57.28
64889;BME280;51386;53.082;8.816;2023-04-29T02:11:48;101167.97;;;15.85;57.22
64889;BME280;51386;53.082;8.816;2023-04-29T02:14:15;101179.59;;;15.84;57.36
64889;BME280;51386;53.082;8.816;2023-04-29T02:16:43;101183.25;;;15.83;57.61
64889;BME280;51386;53.082;8.816;2023-04-29T02:19:11;101182.63;;;15.81;57.33
64889;BME280;51386;53.082;8.816;2023-04-29T02:21:38;101182.84;;;15.80;57.43
64889;BME280;51386;53.082;8.816;2023-04-29T02:24:05;101185.69;;;15.78;57.16
64889;BME280;51386;53.082;8.816;2023-04-29T02:26:32;101186.09;;;15.75;56.96
64889;BME280;51386;53.082;8.816;2023-04-29T02:29:05;101189.75;;;15.74;57.09
64889;BME280;51386;53.082;8.816;2023-04-29T02:31:32;101192.16;;;15.69;57.15
64889;BME280;51386;53.082;8.816;2023-04-29T02:33:59;101207.66;;;15.66;57.11
64889;BME280;51386;53.082;8.816;2023-04-29T02:36:26;101209.25;;;15.60;56.59
64889;BME280;51386;53.082;8.816;2023-04-29T02:38:54;101206.00;;;15.58;57.13
64889;BME280;51386;53.082;8.816;2023-04-29T02:41:22;101213.31;;;15.56;57.05
64889;BME280;51386;53.082;8.816;2023-04-29T02:43:49;101211.69;;;15.55;56.91
64889;BME280;51386;53.082;8.816;2023-04-29T02:46:17;101219.03;;;15.53;57.00
64889;BME280;51386;53.082;8.816;2023-04-29T02:49:03;101218.16;;;15.46;57.14
64889;BME280;51386;53.082;8.816;2023-04-29T02:51:48;101224.00;;;15.41;56.74
64889;BME280;51386;53.082;8.816;2023-04-29T02:54:34;101231.56;;;15.38;56.89
64889;BME280;51386;53.082;8.816;2023-04-29T02:57:02;101241.34;;;15.37;57.18
64889;BME280;51386;53.082;8.816;2023-04-29T02:59:29;101231.56;;;15.38;57.13
64889;BME280;51386;53.082;8.816;2023-04-29T03:01:57;101241.13;;;15.39;57.04
64889;BME280;51386;53.082;8.816;2023-04-29T03:04:24;101239.31;;;15.39;56.92
64889;BME280;51386;53.082;8.816;2023-04-29T03:06:51;101240.13;;;15.40;57.14
64889;BME280;51386;53.082;8.816;2023-04-29T03:09:18;101241.59;;;15.42;56.89
64889;BME280;51386;53.082;8.816;2023-04-29T03:11:47;101245.03;;;15.43;57.22
64889;BME280;51386;53.082;8.816;2023-04-29T03:14:14;101254.66;;;15.44;57.06
64889;BME280;51386;53.082;8.816;2023-04-29T03:16:41;101254.03;;;15.42;56.68
64889;BME280;51386;53.082;8.816;2023-04-29T03:19:09;101256.69;;;15.42;57.01
64889;BME280;51386;53.082;8.816;2023-04-29T03:21:36;101252.38;;;15.41;56.82
64889;BME280;51386;53.082;8.816;2023-04-29T03:24:04;101262.97;;;15.41;56.76
64889;BME280;51386;53.082;8.816;2023-04-29T03:26:31;101251.53;;;15.40;56.56
64889;BME280;51386;53.082;8.816;2023-04-29T03:28:58;101252.38;;;15.41;56.54
64889;BME280;51386;53.082;8.816;2023-04-29T03:31:25;101260.31;;;15.41;56.83
64889;BME280;51386;53.082;8.816;2023-04-29T03:33:53;101260.53;;;15.39;56.67
64889;BME280;51386;53.082;8.816;2023-04-29T03:36:22;101260.75;;;15.38;56.71
64889;BME280;51386;53.082;8.816;2023-04-29T03:38:48;101270.69;;;15.36;56.60
64889;BME280;51386;53.082;8.816;2023-04-29T03:41:16;101271.72;;;15.35;56.82
64889;BME280;51386;53.082;8.816;2023-04-29T03:43:43;101274.53;;;15.33;56.88
64889;BME280;51386;53.082;8.816;2023-04-29T03:46:10;101270.28;;;15.32;56.67
64889;BME280;51386;53.082;8.816;2023-04-29T03:48:37;101267.63;;;15.32;56.90
64889;BME280;51386;53.082;8.816;2023-04-29T03:51:04;101278.03;;;15.34;56.98
64889;BME280;51386;53.082;8.816;2023-04-29T03:53:32;101284.38;;;15.33;56.88
64889;BME280;51386;53.082;8.816;2023-04-29T03:55:59;101282.72;;;15.32;56.78
64889;BME280;51386;53.082;8.816;2023-04-29T03:58:26;101284.75;;;15.30;56.74
64889;BME280;51386;53.082;8.816;2023-04-29T04:00:54;101289.41;;;15.28;56.75
64889;BME280;51386;53.082;8.816;2023-04-29T04:03:21;101293.28;;;15.25;56.67
64889;BME280;51386;53.082;8.816;2023-04-29T04:05:49;101308.34;;;15.25;56.99
64889;BME280;51386;53.082;8.816;2023-04-29T04:08:16;101306.69;;;15.24;56.66
64889;BME280;51386;53.082;8.816;2023-04-29T04:10:44;101316.69;;;15.22;56.89
64889;BME280;51386;53.082;8.816;2023-04-29T04:13:11;101318.91;;;15.18;57.04
64889;BME280;51386;53.082;8.816;2023-04-29T04:15:38;101315.44;;;15.18;57.03
64889;BME280;51386;53.082;8.816;2023-04-29T04:18:05;101322.75;;;15.16;56.86
64889;BME280;51386;53.082;8.816;2023-04-29T04:20:32;101330.09;;;15.14;56.99
64889;BME280;51386;53.082;8.816;2023-04-29T04:23:02;101333.75;;;15.13;56.83
64889;BME280;51386;53.082;8.816;2023-04-29T04:25:29;101337.41;;;15.12;56.97
64889;BME280;51386;53.082;8.816;2023-04-29T04:27:57;101340.06;;;15.12;56.96
64889;BME280;51386;53.082;8.816;2023-04-29T04:30:24;101343.53;;;15.12;57.15
64889;BME280;51386;53.082;8.816;2023-04-29T04:32:51;101342.72;;;15.12;57.08
64889;BME280;51386;53.082;8.816;2023-04-29T04:35:18;101341.06;;;15.11;56.96
64889;BME280;51386;53.082;8.816;2023-04-29T04:37:45;101348.03;;;15.12;57.28
64889;BME280;51386;53.082;8.816;2023-04-29T04:40:12;101348.03;;;15.12;56.95
64889;BME280;51386;53.082;8.816;2023-04-29T04:42:39;101353.34;;;15.12;57.06
64889;BME280;51386;53.082;8.816;2023-04-29T04:45:09;101354.31;;;15.11;57.02
64889;BME280;51386;53.082;8.816;2023-04-29T04:47:39;101358.19;;;15.08;56.82
64889;BME280;51386;53.082;8.816;2023-04-29T04:50:07;101358.19;;;15.08;57.20
64889;BME280;51386;53.082;8.816;2023-04-29T04:52:35;101365.31;;;15.08;56.80
64889;BME280;51386;53.082;8.816;2023-04-29T04:55:02;101368.78;;;15.08;57.14
64889;BME280;51386;53.082;8.816;2023-04-29T04:57:29;101374.09;;;15.08;56.99
64889;BME280;51386;53.082;8.816;2023-04-29T04:59:56;101396.13;;;15.09;56.93
64889;BME280;51386;53.082;8.816;2023-04-29T05:02:25;101395.94;;;15.10;57.18
64889;BME280;51386;53.082;8.816;2023-04-29T05:04:52;101395.75;;;15.12;57.31
64889;BME280;51386;53.082;8.816;2023-04-29T05:07:19;101397.38;;;15.13;57.18
64889;BME280;51386;53.082;8.816;2023-04-29T05:09:46;101399.03;;;15.14;56.81
64889;BME280;51386;53.082;8.816;2023-04-29T05:12:13;101402.31;;;15.16;57.12
64889;BME280;51386;53.082;8.816;2023-04-29T05:14:40;101413.34;;;15.19;57.15
64889;BME280;51386;53.082;8.816;2023-04-29T05:17:07;101413.81;;;15.23;57.14
64889;BME280;51386;53.082;8.816;2023-04-29T05:19:37;101420.38;;;15.27;56.89
64889;BME280;51386;53.082;8.816;2023-04-29T05:22:04;101419.56;;;15.26;56.83
64889;BME280;51386;53.082;8.816;2023-04-29T05:24:31;101415.53;;;15.30;57.08
64889;BME280;51386;53.082;8.816;2023-04-29T05:26:58;101419.66;;;15.33;56.55
64889;BME280;51386;53.082;8.816;2023-04-29T05:29:25;101418.25;;;15.37;56.71
64889;BME280;51386;53.082;8.816;2023-04-29T05:31:53;101425.00;;;15.39;56.63
64889;BME280;51386;53.082;8.816;2023-04-29T05:34:20;101428.28;;;15.41;56.32
64889;BME280;51386;53.082;8.816;2023-04-29T05:36:48;101435.72;;;15.46;56.45
64889;BME280;51386;53.082;8.816;2023-04-29T05:39:15;101435.34;;;15.49;56.31
64889;BME280;51386;53.082;8.816;2023-04-29T05:41:43;101433.94;;;15.53;56.23
64889;BME280;51386;53.082;8.816;2023-04-29T05:44:10;101438.06;;;15.55;56.10
64889;BME280;51386;53.082;8.816;2023-04-29T05:46:37;101440.13;;;15.60;56.23
64889;BME280;51386;53.082;8.816;2023-04-29T05:49:04;101441.41;;;15.64;55.96
64889;BME280;51386;53.082;8.816;2023-04-29T05:51:31;101446.94;;;15.69;56.03
64889;BME280;51386;53.082;8.816;2023-04-29T05:53:59;101440.28;;;15.73;55.79
64889;BME280;51386;53.082;8.816;2023-04-29T05:56:26;101453.78;;;15.78;55.72
64889;BME280;51386;53.082;8.816;2023-04-29T05:58:53;101458.06;;;15.79;55.90
64889;BME280;51386;53.082;8.816;2023-04-29T06:01:20;101457.69;;;15.82;55.68
64889;BME280;51386;53.082;8.816;2023-04-29T06:03:48;101460.97;;;15.84;55.32
64889;BME280;51386;53.082;8.816;2023-04-29T06:06:15;101458.13;;;15.86;55.27
64889;BME280;51386;53.082;8.816;2023-04-29T06:08:42;101467.53;;;15.88;55.14
64889;BME280;51386;53.082;8.816;2023-04-29T06:11:10;101471.84;;;15.89;55.20
64889;BME280;51386;53.082;8.816;2023-04-29T06:13:37;101475.13;;;15.91;55.13
64889;BME280;51386;53.082;8.816;2023-04-29T06:16:05;101481.69;;;15.95;55.51
64889;BME280;51386;53.082;8.816;2023-04-29T06:18:33;101487.25;;;16.00;55.00
64889;BME280;51386;53.082;8.816;2023-04-29T06:21:00;101481.94;;;16.00;54.93
64889;BME280;51386;53.082;8.816;2023-04-29T06:23:27;101486.25;;;16.01;54.84
64889;BME280;51386;53.082;8.816;2023-04-29T06:25:54;101485.22;;;16.02;54.79
64889;BME280;51386;53.082;8.816;2023-04-29T06:28:22;101490.16;;;16.05;54.94
64889;BME280;51386;53.082;8.816;2023-04-29T06:30:49;101488.13;;;16.07;54.69
64889;BME280;51386;53.082;8.816;2023-04-29T06:33:16;101505.16;;;16.13;54.66
64889;BME280;51386;53.082;8.816;2023-04-29T06:35:43;101513.13;;;16.13;54.74
64889;BME280;51386;53.082;8.816;2023-04-29T06:38:10;101511.28;;;16.13;54.29
64889;BME280;51386;53.082;8.816;2023-04-29T06:40:37;101517.22;;;16.15;54.49
64889;BME280;51386;53.082;8.816;2023-04-29T06:43:04;101514.19;;;16.18;54.93
64889;BME280;51386;53.082;8.816;2023-04-29T06:45:32;101521.75;;;16.21;54.56
64889;BME280;51386;53.082;8.816;2023-04-29T06:47:59;101522.00;;;16.26;54.50
64889;BME280;51386;53.082;8.816;2023-04-29T06:50:26;101529.22;;;16.33;54.65
64889;BME280;51386;53.082;8.816;2023-04-29T06:52:54;101532.94;;;16.38;54.57
64889;BME280;51386;53.082;8.816;2023-04-29T06:55:21;101534.22;;;16.42;54.07
64889;BME280;51386;53.082;8.816;2023-04-29T06:57:49;101542.84;;;16.51;54.05
64889;BME280;51386;53.082;8.816;2023-04-29T07:00:15;101545.00;;;16.62;53.97
64889;BME280;51386;53.082;8.816;2023-04-29T07:02:46;101543.84;;;16.71;53.61
64889;BME280;51386;53.082;8.816;2023-04-29T07:05:13;101548.75;;;16.74;53.67
64889;BME280;51386;53.082;8.816;2023-04-29T07:07:40;101553.31;;;16.80;53.36
64889;BME280;51386;53.082;8.816;2023-04-29T07:10:08;101551.69;;;16.85;53.10
64889;BME280;51386;53.082;8.816;2023-04-29T07:12:35;101562.41;;;16.92;53.15
64889;BME280;51386;53.082;8.816;2023-04-29T07:15:03;101559.97;;;16.97;52.60
64889;BME280;51386;53.082;8.816;2023-04-29T07:17:31;101572.47;;;17.03;52.66
64889;BME280;51386;53.082;8.816;2023-04-29T07:19:59;101573.13;;;17.12;52.84
64889;BME280;51386;53.082;8.816;2023-04-29T07:22:26;101584.00;;;17.17;52.52
64889;BME280;51386;53.082;8.816;2023-04-29T07:24:53;101581.41;;;17.23;52.30
64889;BME280;51386;53.082;8.816;2023-04-29T07:27:21;101585.72;;;17.31;52.32
64889;BME280;51386;53.082;8.816;2023-04-29T07:29:49;101584.09;;;17.36;52.08
64889;BME280;51386;53.082;8.816;2023-04-29T07:32:16;101590.50;;;17.48;52.07
64889;BME280;51386;53.082;8.816;2023-04-29T07:34:43;101592.44;;;17.61;51.66
64889;BME280;51386;53.082;8.816;2023-04-29T07:37:11;101594.31;;;17.74;51.44
64889;BME280;51386;53.082;8.816;2023-04-29T07:39:38;101600.91;;;17.84;51.05
64889;BME280;51386;53.082;8.816;2023-04-29T07:42:05;101603.59;;;17.97;50.04
64889;BME280;51386;53.082;8.816;2023-04-29T07:44:32;101609.56;;;18.06;49.81
64889;BME280;51386;53.082;8.816;2023-04-29T07:46:59;101619.84;;;18.15;49.59
64889;BME280;51386;53.082;8.816;2023-04-29T07:49:26;101616.34;;;18.28;49.60
64889;BME280;51386;53.082;8.816;2023-04-29T07:51:53;101616.63;;;18.46;49.56
64889;BME280;51386;53.082;8.816;2023-04-29T07:54:21;101622.78;;;18.60;49.05
64889;BME280;51386;53.082;8.816;2023-04-29T07:56:49;101620.72;;;18.75;48.95
64889;BME280;51386;53.082;8.816;2023-04-29T07:59:16;101617.03;;;18.89;48.29
64889;BME280;51386;53.082;8.816;2023-04-29T08:01:43;101632.59;;;18.99;46.91
64889;BME280;51386;53.082;8.816;2023-04-29T08:04:10;101629.69;;;19.07;47.00
64889;BME280;51386;53.082;8.816;2023-04-29T08:06:37;101624.34;;;19.20;46.59
64889;BME280;51386;53.082;8.816;2023-04-29T08:09:04;101630.69;;;19.32;46.20
64889;BME280;51386;53.082;8.816;2023-04-29T08:11:32;101627.81;;;19.46;46.15
64889;BME280;51386;53.082;8.816;2023-04-29T08:13:59;101631.44;;;19.65;45.12
64889;BME280;51386;53.082;8.816;2023-04-29T08:16:26;101638.97;;;19.81;44.02
64889;BME280;51386;53.082;8.816;2023-04-29T08:18:53;101641.41;;;19.89;43.47
64889;BME280;51386;53.082;8.816;2023-04-29T08:21:21;101645.03;;;20.01;43.39
64889;BME280;51386;53.082;8.816;2023-04-29T08:23:48;101640.38;;;20.21;42.76
64889;BME280;51386;53.082;8.816;2023-04-29T08:26:16;101643.13;;;20.46;41.87
64889;BME280;51386;53.082;8.816;2023-04-29T08:28:44;101649.22;;;20.78;41.01
64889;BME280;51386;53.082;8.816;2023-04-29T08:31:16;101644.59;;;21.52;41.20
64889;BME280;51386;53.082;8.816;2023-04-29T08:33:43;101645.66;;;22.29;39.86
64889;BME280;51386;53.082;8.816;2023-04-29T08:36:10;101665.13;;;22.77;38.13
64889;BME280;51386;53.082;8.816;2023-04-29T08:38:37;101667.84;;;23.12;36.80
64889;BME280;51386;53.082;8.816;2023-04-29T08:41:07;101665.63;;;23.44;35.65
64889;BME280;51386;53.082;8.816;2023-04-29T08:43:35;101673.47;;;23.85;35.12
64889;BME280;51386;53.082;8.816;2023-04-29T08:46:04;101682.81;;;24.22;34.57
64889;BME280;51386;53.082;8.816;2023-04-29T08:48:32;101674.47;;;24.52;34.54
64889;BME280;51386;53.082;8.816;2023-04-29T08:51:00;101685.09;;;24.75;34.71
64889;BME280;51386;53.082;8.816;2023-04-29T08:53:28;101684.72;;;25.00;33.72
64889;BME280;51386;53.082;8.816;2023-04-29T08:56:01;101690.81;;;25.12;32.98
64889;BME280;51386;53.082;8.816;2023-04-29T08:58:33;101691.03;;;25.66;32.56
64889;BME280;51386;53.082;8.816;2023-04-29T09:01:05;101695.34;;;26.63;30.85
64889;BME280;51386;53.082;8.816;2023-04-29T09:03:41;101688.72;;;27.55;29.99
64889;BME280;51386;53.082;8.816;2023-04-29T09:06:10;101687.47;;;27.87;27.90
64889;BME280;51386;53.082;8.816;2023-04-29T09:08:38;101695.19;;;28.26;27.75
64889;BME280;51386;53.082;8.816;2023-04-29T09:11:08;101698.22;;;28.95;27.32
64889;BME280;51386;53.082;8.816;2023-04-29T09:13:37;101704.25;;;29.76;25.46
64889;BME280;51386;53.082;8.816;2023-04-29T09:16:10;101705.53;;;30.47;24.45
64889;BME280;51386;53.082;8.816;2023-04-29T09:18:42;101699.00;;;31.11;23.42
64889;BME280;51386;53.082;8.816;2023-04-29T09:21:17;101701.28;;;31.93;23.08
64889;BME280;51386;53.082;8.816;2023-04-29T09:23:50;101697.63;;;32.59;21.29
64889;BME280;51386;53.082;8.816;2023-04-29T09:26:17;101699.06;;;32.70;20.74
64889;BME280;51386;53.082;8.816;2023-04-29T09:28:45;101699.59;;;33.18;21.49
64889;BME280;51386;53.082;8.816;2023-04-29T09:31:26;101704.66;;;33.79;20.99
64889;BME280;51386;53.082;8.816;2023-04-29T09:33:55;101709.44;;;34.23;19.61
64889;BME280;51386;53.082;8.816;2023-04-29T09:36:40;101712.00;;;34.41;19.77
64889;BME280;51386;53.082;8.816;2023-04-29T09:39:09;101711.09;;;34.68;19.69
64889;BME280;51386;53.082;8.816;2023-04-29T09:41:59;101699.59;;;35.19;19.65
64889;BME280;51386;53.082;8.816;2023-04-29T09:44:30;101702.34;;;35.19;18.23
64889;BME280;51386;53.082;8.816;2023-04-29T09:47:04;101710.63;;;35.36;18.62
64889;BME280;51386;53.082;8.816;2023-04-29T09:49:33;101709.50;;;35.93;18.40
64889;BME280;51386;53.082;8.816;2023-04-29T09:52:07;101714.66;;;35.86;18.00
64889;BME280;51386;53.082;8.816;2023-04-29T09:54:37;101710.44;;;35.63;17.84
64889;BME280;51386;53.082;8.816;2023-04-29T09:57:08;101707.88;;;35.75;18.16
64889;BME280;51386;53.082;8.816;2023-04-29T09:59:37;101709.34;;;35.81;18.04
64889;BME280;51386;53.082;8.816;2023-04-29T10:02:14;101721.34;;;36.20;17.97
64889;BME280;51386;53.082;8.816;2023-04-29T10:04:45;101716.00;;;36.32;17.26
64889;BME280;51386;53.082;8.816;2023-04-29T10:07:15;101716.66;;;36.29;16.90
64889;BME280;51386;53.082;8.816;2023-04-29T10:09:44;101722.13;;;36.12;17.03
64889;BME280;51386;53.082;8.816;2023-04-29T10:12:16;101715.59;;;35.73;17.25
64889;BME280;51386;53.082;8.816;2023-04-29T10:15:01;101711.97;;;34.86;18.18
64889;BME280;51386;53.082;8.816;2023-04-29T10:17:41;101719.44;;;33.23;18.88
64889;BME280;51386;53.082;8.816;2023-04-29T10:20:14;101716.25;;;32.70;19.66
64889;BME280;51386;53.082;8.816;2023-04-29T10:22:46;101718.34;;;32.92;20.26
64889;BME280;51386;53.082;8.816;2023-04-29T10:25:15;101724.94;;;33.05;19.34
64889;BME280;51386;53.082;8.816;2023-04-29T10:27:44;101720.63;;;32.16;20.91
64889;BME280;51386;53.082;8.816;2023-04-29T10:30:12;101739.41;;;31.51;20.87
64889;BME280;51386;53.082;8.816;2023-04-29T10:32:42;101732.34;;;30.59;22.57
64889;BME280;51386;53.082;8.816;2023-04-29T10:35:19;101735.75;;;29.82;22.69
64889;BME280;51386;53.082;8.816;2023-04-29T10:37:50;101739.22;;;29.97;22.62
64889;BME280;51386;53.082;8.816;2023-04-29T10:40:28;101731.91;;;30.42;22.19
64889;BME280;51386;53.082;8.816;2023-04-29T10:42:58;101737.84;;;30.49;22.54
64889;BME280;51386;53.082;8.816;2023-04-29T10:45:26;101744.16;;;29.90;22.08
64889;BME280;51386;53.082;8.816;2023-04-29T10:48:13;101740.75;;;29.34;23.30
64889;BME280;51386;53.082;8.816;2023-04-29T10:51:01;101735.03;;;30.15;22.31
64889;BME280;51386;53.082;8.816;2023-04-29T10:53:28;101747.88;;;30.53;21.34
64889;BME280;51386;53.082;8.816;2023-04-29T10:56:05;101742.59;;;30.67;21.04
64889;BME280;51386;53.082;8.816;2023-04-29T10:58:40;101747.19;;;31.34;20.35
64889;BME280;51386;53.082;8.816;2023-04-29T11:01:11;101739.03;;;31.34;20.08
64889;BME280;51386;53.082;8.816;2023-04-29T11:03:52;101743.09;;;30.40;20.96
64889;BME280;51386;53.082;8.816;2023-04-29T11:06:39;101746.75;;;29.16;22.26
64889;BME280;51386;53.082;8.816;2023-04-29T11:09:10;101744.59;;;28.73;22.86
64889;BME280;51386;53.082;8.816;2023-04-29T11:11:48;101752.63;;;28.28;23.19
64889;BME280;51386;53.082;8.816;2023-04-29T11:14:24;101748.09;;;27.81;23.99
64889;BME280;51386;53.082;8.816;2023-04-29T11:16:56;101748.66;;;27.88;23.72
64889;BME280;51386;53.082;8.816;2023-04-29T11:19:30;101737.94;;;28.08;24.02
64889;BME280;51386;53.082;8.816;2023-04-29T11:22:24;101736.72;;;28.61;23.77
64889;BME280;51386;53.082;8.816;2023-04-29T11:24:54;101745.69;;;29.07;22.58
64889;BME280;51386;53.082;8.816;2023-04-29T11:27:25;101744.81;;;29.47;22.04
64889;BME280;51386;53.082;8.816;2023-04-29T11:29:54;101741.78;;;29.59;21.54
64889;BME280;51386;53.082;8.816;2023-04-29T11:32:25;101753.47;;;29.54;21.50
64889;BME280;51386;53.082;8.816;2023-04-29T11:34:54;101740.66;;;29.65;21.53
64889;BME280;51386;53.082;8.816;2023-04-29T11:37:24;101742.53;;;29.79;21.43
64889;BME280;51386;53.082;8.816;2023-04-29T11:39:58;101752.63;;;29.69;21.50
64889;BME280;51386;53.082;8.816;2023-04-29T11:42:26;101746.41;;;29.48;21.53
64889;BME280;51386;53.082;8.816;2023-04-29T11:44:55;101757.59;;;29.31;21.50
64889;BME280;51386;53.082;8.816;2023-04-29T11:47:27;101763.03;;;29.11;20.97
64889;BME280;51386;53.082;8.816;2023-04-29T11:50:04;101757.59;;;28.91;21.38
64889;BME280;51386;53.082;8.816;2023-04-29T11:52:31;101768.97;;;28.63;21.58
64889;BME280;51386;53.082;8.816;2023-04-29T11:54:59;101752.34;;;28.24;21.77
64889;BME280;51386;53.082;8.816;2023-04-29T11:57:26;101758.56;;;28.25;21.59
64889;BME280;51386;53.082;8.816;2023-04-29T11:59:53;101767.56;;;28.40;21.23
64889;BME280;51386;53.082;8.816;2023-04-29T12:02:21;101761.38;;;28.60;21.29
64889;BME280;51386;53.082;8.816;2023-04-29T12:04:49;101766.81;;;28.90;21.04
64889;BME280;51386;53.082;8.816;2023-04-29T12:07:18;101773.34;;;29.09;20.95
64889;BME280;51386;53.082;8.816;2023-04-29T12:09:45;101763.53;;;29.38;21.14
64889;BME280;51386;53.082;8.816;2023-04-29T12:12:13;101770.00;;;29.63;20.80
64889;BME280;51386;53.082;8.816;2023-04-29T12:14:42;101765.91;;;29.80;20.52
64889;BME280;51386;53.082;8.816;2023-04-29T12:17:10;101773.75;;;29.72;19.91
64889;BME280;51386;53.082;8.816;2023-04-29T12:19:38;101786.88;;;29.39;20.42
64889;BME280;51386;53.082;8.816;2023-04-29T12:22:07;101781.47;;;29.14;21.08
64889;BME280;51386;53.082;8.816;2023-04-29T12:24:37;101776.03;;;28.89;21.45
64889;BME280;51386;53.082;8.816;2023-04-29T12:27:07;101786.34;;;28.92;21.62
64889;BME280;51386;53.082;8.816;2023-04-29T12:29:35;101782.00;;;28.96;21.33
64889;BME280;51386;53.082;8.816;2023-04-29T12:32:03;101784.19;;;28.94;21.16
64889;BME280;51386;53.082;8.816;2023-04-29T12:34:31;101783.06;;;28.70;21.58
64889;BME280;51386;53.082;8.816;2023-04-29T12:36:59;101788.50;;;28.70;21.86
64889;BME280;51386;53.082;8.816;2023-04-29T12:39:26;101781.19;;;29.01;21.96
64889;BME280;51386;53.082;8.816;2023-04-29T12:41:57;101786.34;;;28.87;21.32
64889;BME280;51386;53.082;8.816;2023-04-29T12:44:25;101786.59;;;28.65;21.86
64889;BME280;51386;53.082;8.816;2023-04-29T12:46:52;101788.50;;;28.80;22.07
64889;BME280;51386;53.082;8.816;2023-04-29T12:49:23;101791.75;;;29.12;21.21
64889;BME280;51386;53.082;8.816;2023-04-29T12:51:50;101792.31;;;29.39;20.79
64889;BME280;51386;53.082;8.816;2023-04-29T12:54:18;101790.97;;;29.42;21.32
64889;BME280;51386;53.082;8.816;2023-04-29T12:56:44;101787.94;;;29.59;20.67
64889;BME280;51386;53.082;8.816;2023-04-29T12:59:15;101797.66;;;29.75;20.22
64889;BME280;51386;53.082;8.816;2023-04-29T13:01:42;101788.44;;;29.76;19.68